Time;durP1;ratioP1;P1;durP2;ratioP2;P2;SDS_P1;SDS_P2;PMS_P1;PMS_P2;Temp;Humidity;BMP_temperature;BMP_pressure;BME280_temperature;BME280_humidity;BME280_pressure;Samples;Min_cycle;Max_cycle;Signal;HPM_P1;HPM_P2
2021/04/05 00:01:38;;;;;;;5.65;1.50;;;;;;;;;;5066614;28;20028;-78
2021/04/05 00:04:05;;;;;;;3.10;1.60;;;8.20;35.50;;;;;;5066089;28;20112;-79
2021/04/05 00:06:31;;;;;;;2.47;1.80;;;;;;;;;;5069611;28;20024;-79
2021/04/05 00:08:57;;;;;;;4.00;1.63;;;;;;;;;;5066255;28;20275;-79
2021/04/05 00:11:23;;;;;;;2.60;1.33;;;;;;;;;;5047382;28;20020;-80
2021/04/05 00:13:49;;;;;;;1.33;1.23;;;;;;;;;;5066529;28;20032;-80
2021/04/05 00:16:19;;;;;;;5.45;1.23;;;8.30;35.10;;;;;;5065591;28;20048;-77
2021/04/05 00:18:46;;;;;;;1.25;0.90;;;8.50;43.20;;;;;;5067426;28;20107;-79
2021/04/05 00:21:15;;;;;;;3.63;1.00;;;8.20;34.80;;;;;;5067324;28;20043;-79
2021/04/05 00:23:41;;;;;;;1.05;1.05;;;;;;;;;;5064718;28;21698;-78
2021/04/05 00:26:07;;;;;;;1.08;0.77;;;;;;;;;;5064871;28;20524;-77
2021/04/05 00:28:33;;;;;;;3.60;1.13;;;;;;;;;;5067081;28;20024;-80
2021/04/05 00:30:59;;;;;;;1.20;0.73;;;;;;;;;;5065943;28;20149;-79
2021/04/05 00:33:25;;;;;;;1.42;1.33;;;8.20;47.30;;;;;;5068557;28;20633;-78
2021/04/05 00:35:51;;;;;;;9.15;4.45;;;;;;;;;;5066923;28;20127;-80
2021/04/05 00:38:17;;;;;;;6.40;1.60;;;;;;;;;;5064600;28;20020;-79
2021/04/05 00:41:09;;;;;;;1.55;0.98;;;7.80;45.50;;;;;;5064920;28;20024;-78
2021/04/05 00:43:36;;;;;;;1.05;0.90;;;8.00;34.70;;;;;;5047998;28;20501;-80
2021/04/05 00:46:09;;;;;;;1.65;1.25;;;8.00;34.90;;;;;;5066463;28;20041;-78
2021/04/05 00:48:36;;;;;;;1.13;1.02;;;8.10;35.60;;;;;;5050601;28;20036;-80
2021/04/05 00:51:11;;;;;;;1.63;1.33;;;8.20;34.90;;;;;;5066472;28;20108;-79
2021/04/05 00:53:40;;;;;;;3.10;1.20;;;8.00;34.90;;;;;;5064203;28;20380;-79
2021/04/05 00:56:07;;;;;;;1.70;1.10;;;8.10;41.50;;;;;;5068356;28;20451;-79
2021/04/05 00:58:34;;;;;;;2.08;1.08;;;7.90;35.00;;;;;;5064597;28;20028;-79
2021/04/05 01:01:02;;;;;;;2.73;1.13;;;7.70;35.90;;;;;;5066161;28;20576;-78
2021/04/05 01:03:35;;;;;;;5.43;1.00;;;7.80;54.40;;;;;;5068832;28;20024;-79
2021/04/05 01:06:11;;;;;;;4.78;1.30;;;7.60;35.90;;;;;;5066166;28;20024;-78
2021/04/05 01:08:36;;;;;;;1.80;0.85;;;7.50;49.00;;;;;;5060692;28;20033;-79
2021/04/05 01:11:03;;;;;;;1.38;0.98;;;;;;;;;;5067203;28;20042;-79
2021/04/05 01:13:29;;;;;;;2.28;2.03;;;;;;;;;;5046261;28;20068;-78
2021/04/05 01:15:55;;;;;;;2.90;0.90;;;;;;;;;;5066336;28;20068;-79
2021/04/05 01:18:21;;;;;;;2.55;1.88;;;;;;;;;;5048757;28;20043;-79
2021/04/05 01:20:47;;;;;;;3.70;1.33;;;7.50;47.40;;;;;;5064501;28;20789;-79
2021/04/05 01:23:15;;;;;;;0.57;0.57;;;7.70;35.90;;;;;;5065365;28;20028;-78
2021/04/05 01:25:41;;;;;;;3.00;1.63;;;;;;;;;;5048750;28;20120;-79
2021/04/05 01:28:08;;;;;;;2.42;1.25;;;7.80;36.20;;;;;;5064699;28;20041;-79
2021/04/05 01:30:42;;;;;;;1.38;1.10;;;7.90;47.00;;;;;;5062710;28;20657;-78
2021/04/05 01:33:08;;;;;;;2.53;1.67;;;;;;;;;;5064983;28;20029;-78
2021/04/05 01:35:49;;;;;;;3.25;0.82;;;7.70;58.20;;;;;;5065392;28;20036;-79
2021/04/05 01:38:17;;;;;;;0.80;0.80;;;7.50;36.20;;;;;;5059390;28;20562;-79
2021/04/05 01:40:54;;;;;;;2.45;0.98;;;7.50;44.90;;;;;;5064820;28;20032;-79
2021/04/05 01:43:20;;;;;;;2.28;1.27;;;7.30;47.50;;;;;;5063898;28;20489;-78
2021/04/05 01:45:46;;;;;;;1.85;1.25;;;7.50;46.40;;;;;;5069936;28;20016;-78
2021/04/05 01:48:15;;;;;;;1.08;0.98;;;;;;;;;;5070660;28;20043;-79
2021/04/05 01:50:44;;;;;;;0.95;0.77;;;6.90;37.10;;;;;;5066614;28;20047;-79
2021/04/05 01:53:11;;;;;;;4.05;2.08;;;7.00;37.00;;;;;;5067355;28;20048;-78
2021/04/05 01:55:37;;;;;;;5.90;0.98;;;7.20;37.30;;;;;;5067278;28;20124;-78
2021/04/05 01:58:05;;;;;;;5.82;1.52;;;7.30;48.80;;;;;;5068305;28;20397;-79
2021/04/05 02:00:35;;;;;;;1.92;1.48;;;7.20;37.40;;;;;;5071189;28;20489;-78
2021/04/05 02:03:09;;;;;;;1.88;1.13;;;5.70;35.30;;;;;;5068974;28;20537;-79
2021/04/05 02:05:37;;;;;;;2.88;1.60;;;7.10;37.00;;;;;;5069141;28;20107;-80
2021/04/05 02:08:05;;;;;;;8.57;1.63;;;7.00;37.50;;;;;;5067398;28;20039;-79
2021/04/05 02:10:31;;;;;;;5.43;1.00;;;7.30;59.80;;;;;;5067396;28;20143;-79
2021/04/05 02:12:57;;;;;;;1.08;0.98;;;;;;;;;;5069095;28;20605;-79
2021/04/05 02:15:25;;;;;;;1.20;1.15;;;;;;;;;;5069992;28;20397;-79
2021/04/05 02:17:52;;;;;;;2.95;1.77;;;7.20;37.10;;;;;;5066962;28;20702;-79
2021/04/05 02:20:18;;;;;;;4.50;1.48;;;7.00;37.50;;;;;;5067518;28;20688;-79
2021/04/05 02:22:49;;;;;;;1.45;1.00;;;7.10;37.40;;;;;;5069101;28;20489;-78
2021/04/05 02:25:20;;;;;;;2.30;1.23;;;7.00;37.80;;;;;;5067139;28;20041;-79
2021/04/05 02:27:51;;;;;;;4.30;1.58;;;7.20;37.40;;;;;;5068389;28;20378;-80
2021/04/05 02:30:27;;;;;;;2.95;1.00;;;7.00;37.40;;;;;;5068624;28;20021;-79
2021/04/05 02:33:04;;;;;;;2.95;2.67;;;7.00;37.50;;;;;;5067065;28;20024;-79
2021/04/05 02:35:32;;;;;;;1.23;0.82;;;7.00;37.10;;;;;;5068300;28;20070;-78
2021/04/05 02:37:59;;;;;;;7.38;1.40;;;6.90;37.30;;;;;;5068251;28;20020;-78
2021/04/05 02:40:25;;;;;;;4.97;3.15;;;;;;;;;;5066523;28;20024;-80
2021/04/05 02:42:54;;;;;;;2.00;1.30;;;7.10;36.80;;;;;;5068290;28;20390;-80
2021/04/05 02:45:21;;;;;;;1.48;1.00;;;7.40;36.70;;;;;;5070210;28;20071;-79
2021/04/05 02:47:49;;;;;;;4.07;1.30;;;;;;;;;;5068439;28;20746;-80
2021/04/05 02:50:15;;;;;;;9.57;1.13;;;7.40;36.80;;;;;;5066431;28;20546;-78
2021/04/05 02:52:42;;;;;;;2.40;1.80;;;;;;;;;;5065761;28;20045;-78
2021/04/05 02:55:10;;;;;;;0.98;0.80;;;7.30;59.30;;;;;;5067676;28;20058;-80
2021/04/05 02:57:37;;;;;;;;;;;7.30;37.00;;;;;;5073189;28;20033;-78
2021/04/05 03:00:11;;;;;;;2.47;1.03;;;7.30;37.20;;;;;;5068513;28;19920;-79
2021/04/05 03:02:38;;;;;;;1.83;1.23;;;7.00;39.50;;;;;;5066257;28;20028;-78
2021/04/05 03:05:06;;;;;;;5.03;1.67;;;6.80;59.50;;;;;;5067472;28;20035;-79
2021/04/05 03:07:32;;;;;;;;;;;7.30;37.50;;;;;;5066929;28;20097;-79
2021/04/05 03:09:58;;;;;;;2.58;1.67;;;;;;;;;;5067447;28;20311;-79
2021/04/05 03:12:24;;;;;;;2.65;1.50;;;7.30;54.00;;;;;;5068757;28;20153;-79
2021/04/05 03:14:51;;;;;;;1.95;1.20;;;7.30;37.70;;;;;;5066357;28;20107;-79
2021/04/05 03:17:19;;;;;;;8.70;1.60;;;7.20;36.60;;;;;;5066152;28;20040;-79
2021/04/05 03:19:45;;;;;;;2.45;1.60;;;7.10;36.80;;;;;;5065666;28;20033;-79
2021/04/05 03:22:12;;;;;;;2.85;1.52;;;6.90;37.30;;;;;;5046858;28;20149;-79
2021/04/05 03:24:38;;;;;;;2.63;1.35;;;5.60;36.00;;;;;;5069161;28;20378;-79
2021/04/05 03:27:04;;;;;;;3.58;1.20;;;6.90;58.00;;;;;;5065717;28;20036;-79
2021/04/05 03:29:35;;;;;;;1.15;1.05;;;6.80;47.90;;;;;;5065111;28;20496;-79
2021/04/05 03:32:03;;;;;;;3.53;1.92;;;6.70;37.50;;;;;;5068214;28;20524;-79
2021/04/05 03:34:31;;;;;;;4.90;3.03;;;6.50;38.00;;;;;;5067443;28;20021;-78
2021/04/05 03:37:03;;;;;;;3.42;2.13;;;6.60;37.50;;;;;;5067391;28;20044;-78
2021/04/05 03:39:29;;;;;;;3.80;1.95;;;;;;;;;;5069282;28;20363;-80
2021/04/05 03:42:05;;;;;;;3.08;1.30;;;6.60;37.50;;;;;;5066935;28;20112;-79
2021/04/05 03:44:53;;;;;;;2.03;1.77;;;6.80;37.50;;;;;;5066911;28;20106;-80
2021/04/05 03:47:34;;;;;;;1.42;1.15;;;6.60;37.70;;;;;;5065742;28;20020;-79
2021/04/05 03:50:17;;;;;;;3.13;1.30;;;6.90;37.70;;;;;;5046298;28;20040;-80
2021/04/05 03:52:51;;;;;;;7.25;2.47;;;6.90;37.70;;;;;;5064417;28;20123;-79
2021/04/05 03:55:20;;;;;;;2.35;1.15;;;6.90;37.20;;;;;;5067635;28;20551;-79
2021/04/05 03:57:49;;;;;;;4.78;1.30;;;6.90;37.30;;;;;;5067567;28;20032;-79
2021/04/05 04:00:18;;;;;;;1.65;1.13;;;6.90;37.60;;;;;;5067992;28;20020;-78
2021/04/05 04:02:50;;;;;;;1.88;1.23;;;6.70;37.60;;;;;;5064966;28;20370;-79
2021/04/05 04:10:34;;;;;;;2.97;1.45;;;6.40;43.00;;;;;;5065532;28;20043;-78
2021/04/05 04:13:03;;;;;;;;;;;6.40;38.90;;;;;;5067244;28;20048;-78
2021/04/05 04:15:30;;;;;;;5.72;1.58;;;6.70;38.20;;;;;;5068118;28;19904;-78
2021/04/05 04:17:57;;;;;;;5.88;1.38;;;7.00;37.60;;;;;;5065600;28;20029;-79
2021/04/05 04:20:26;;;;;;;2.72;1.67;;;6.80;38.30;;;;;;5065244;28;20029;-79
2021/04/05 04:22:55;;;;;;;5.57;1.10;;;6.50;59.60;;;;;;5066467;28;20028;-78
2021/04/05 04:25:21;;;;;;;2.78;1.55;;;;;;;;;;5064865;28;20028;-80
2021/04/05 04:27:47;;;;;;;4.97;1.42;;;;;;;;;;5067421;28;20512;-79
2021/04/05 04:30:31;;;;;;;8.38;1.67;;;6.40;47.90;;;;;;5066407;28;20013;-78
2021/04/05 04:33:05;;;;;;;4.95;1.92;;;6.60;38.20;;;;;;5066859;28;20036;-79
2021/04/05 04:35:31;;;;;;;2.58;1.48;;;6.20;38.70;;;;;;5063642;28;20031;-79
2021/04/05 04:37:58;;;;;;;1.37;1.00;;;6.30;39.20;;;;;;5065248;28;20098;-79
2021/04/05 04:40:29;;;;;;;4.10;1.73;;;6.50;39.30;;;;;;5064974;28;20053;-79
2021/04/05 04:42:56;;;;;;;2.08;1.67;;;6.10;39.10;;;;;;5066558;28;20033;-80
2021/04/05 04:45:23;;;;;;;2.60;1.35;;;;;;;;;;5067065;28;20017;-78
2021/04/05 04:47:51;;;;;;;1.85;1.38;;;6.20;38.90;;;;;;5064304;28;20565;-78
2021/04/05 04:50:18;;;;;;;4.60;1.70;;;6.30;38.80;;;;;;5064800;28;20303;-80
2021/04/05 04:52:44;;;;;;;1.95;1.55;;;;;;;;;;5066438;28;20044;-78
2021/04/05 04:55:10;;;;;;;3.03;1.33;;;6.20;43.70;;;;;;5067656;28;20035;-79
2021/04/05 04:57:36;;;;;;;2.55;1.80;;;6.30;61.30;;;;;;5064482;28;20044;-78
2021/04/05 05:00:07;;;;;;;1.95;1.75;;;6.30;60.90;;;;;;5064140;28;20028;-78
2021/04/05 05:02:35;;;;;;;3.30;2.67;;;6.00;38.60;;;;;;5064037;28;20063;-79
2021/04/05 05:05:02;;;;;;;2.95;2.15;;;8.70;41.20;;;;;;5057935;28;20036;-78
2021/04/05 05:07:30;;;;;;;3.63;1.40;;;6.10;39.30;;;;;;5066122;28;20389;-79
2021/04/05 05:09:56;;;;;;;2.17;1.90;;;;;;;;;;5066484;28;20029;-78
2021/04/05 05:12:22;;;;;;;1.60;1.13;;;;;;;;;;5066198;28;20012;-79
2021/04/05 05:14:48;;;;;;;2.33;1.65;;;5.80;40.30;;;;;;5065938;28;20028;-79
2021/04/05 05:17:15;;;;;;;6.63;1.30;;;;;;;;;;5066641;28;20040;-79
2021/04/05 05:19:43;;;;;;;2.42;1.13;;;6.00;40.00;;;;;;5067620;28;20025;-80
2021/04/05 05:22:09;;;;;;;1.30;1.20;;;;;;;;;;5063419;28;20025;-80
2021/04/05 05:24:36;;;;;;;3.20;1.25;;;6.10;39.60;;;;;;5071806;28;20154;-79
2021/04/05 05:27:03;;;;;;;3.33;1.48;;;;;;;;;;5068206;28;20020;-80
2021/04/05 05:29:29;;;;;;;1.60;1.40;;;6.20;41.00;;;;;;5070071;28;20033;-79
2021/04/05 05:31:55;;;;;;;6.38;1.52;;;;;;;;;;5067539;28;20086;-78
2021/04/05 05:34:23;;;;;;;3.08;1.75;;;6.50;40.30;;;;;;5069095;28;20029;-79
2021/04/05 05:36:49;;;;;;;1.38;1.27;;;;;;;;;;5069954;28;20612;-79
2021/04/05 05:39:16;;;;;;;4.78;1.50;;;6.50;39.80;;;;;;5069447;28;20029;-78
2021/04/05 05:41:51;;;;;;;2.22;1.70;;;6.40;40.10;;;;;;5068492;28;20064;-78
2021/04/05 05:44:33;;;;;;;3.30;2.20;;;6.60;39.70;;;;;;5069303;28;20051;-79
2021/04/05 05:47:09;;;;;;;7.20;4.85;;;6.50;39.30;;;;;;5063050;28;20025;-79
2021/04/05 05:50:11;;;;;;;8.88;3.30;;;6.80;47.40;;;;;;5067921;28;20027;-79
2021/04/05 05:52:46;;;;;;;4.90;1.75;;;6.50;39.20;;;;;;5066108;28;20048;-80
2021/04/05 05:55:35;;;;;;;3.13;2.00;;;6.40;39.30;;;;;;5062707;28;20020;-78
2021/04/05 05:58:07;;;;;;;2.35;1.20;;;6.40;39.50;;;;;;5069564;28;20114;-79
2021/04/05 06:00:39;;;;;;;0.90;0.85;;;6.30;48.70;;;;;;5053211;28;20024;-78
2021/04/05 06:03:32;;;;;;;7.18;1.75;;;7.10;39.10;;;;;;5069840;28;20033;-79
2021/04/05 06:05:57;;;;;;;2.88;1.35;;;;;;;;;;5069265;28;20145;-79
2021/04/05 06:08:44;;;;;;;3.75;1.90;;;7.10;39.30;;;;;;5066986;28;20533;-79
2021/04/05 06:11:37;;;;;;;4.15;1.52;;;7.20;53.40;;;;;;5069795;28;20075;-78
2021/04/05 06:14:03;;;;;;;6.40;2.33;;;;;;;;;;5058329;28;20035;-78
2021/04/05 06:16:36;;;;;;;2.95;2.10;;;7.30;38.50;;;;;;5066987;28;20413;-79
2021/04/05 06:19:02;;;;;;;9.07;4.28;;;;;;;;;;5068317;28;20048;-79
2021/04/05 06:21:45;;;;;;;3.13;1.40;;;7.30;60.50;;;;;;5069940;28;20482;-78
2021/04/05 06:24:27;;;;;;;3.25;2.55;;;7.50;39.20;;;;;;5069263;28;20064;-79
2021/04/05 06:26:55;;;;;;;3.92;2.15;;;7.70;39.10;;;;;;5069312;28;20029;-79
2021/04/05 06:29:56;;;;;;;4.18;2.38;;;8.10;38.70;;;;;;5065289;28;20025;-79
2021/04/05 06:32:59;;;;;;;3.60;2.10;;;8.50;41.60;;;;;;5063806;28;20112;-79
2021/04/05 06:35:55;;;;;;;3.60;2.05;;;9.00;36.70;;;;;;5056088;28;20464;-79
2021/04/05 06:38:46;;;;;;;4.82;2.25;;;9.90;35.00;;;;;;5062327;28;20028;-79
2021/04/05 06:41:33;;;;;;;5.15;2.45;;;10.20;33.70;;;;;;5067391;28;20061;-79
2021/04/05 06:44:15;;;;;;;5.97;1.95;;;10.70;33.20;;;;;;5060716;28;20511;-80
2021/04/05 06:47:05;;;;;;;8.43;2.70;;;11.10;32.20;;;;;;5070594;28;20047;-79
2021/04/05 06:50:05;;;;;;;4.90;2.38;;;11.70;31.60;;;;;;5065785;28;20044;-78
2021/04/05 06:52:52;;;;;;;4.63;2.63;;;12.20;51.60;;;;;;5063630;28;20086;-81
2021/04/05 06:55:20;;;;;;;5.25;2.35;;;;;;;;;;5066823;28;20025;-79
2021/04/05 06:58:17;;;;;;;6.15;3.20;;;12.70;50.50;;;;;;5069570;28;20667;-80
2021/04/05 07:00:57;;;;;;;7.25;2.90;;;13.00;29.50;;;;;;5065443;28;20032;-79
2021/04/05 07:03:57;;;;;;;14.25;3.60;;;13.10;29.60;;;;;;5069027;28;20526;-79
2021/04/05 07:06:40;;;;;;;4.55;3.40;;;12.70;30.00;;;;;;5054798;28;20032;-79
2021/04/05 07:09:17;;;;;;;9.38;3.80;;;13.30;50.60;;;;;;5068457;28;20107;-80
2021/04/05 07:12:22;;;;;;;4.20;2.70;;;14.00;29.00;;;;;;5048059;28;20035;-79
2021/04/05 07:15:09;;;;;;;12.75;2.50;;;14.50;38.80;;;;;;5063183;28;20036;-79
2021/04/05 07:17:38;;;;;;;8.20;2.40;;;14.50;47.50;;;;;;5066075;28;20139;-80
2021/04/05 07:20:28;;;;;;;4.53;3.17;;;14.90;27.40;;;;;;5067230;28;20043;-79
2021/04/05 07:23:27;;;;;;;2.20;2.00;;;14.90;41.70;;;;;;5081337;28;20550;-78
2021/04/05 07:25:58;;;;;;;6.47;2.55;;;15.00;28.40;;;;;;5010213;28;20158;-79
2021/04/05 07:28:48;;;;;;;6.60;2.65;;;15.20;35.50;;;;;;5010456;28;20038;-80
2021/04/05 07:31:41;;;;;;;10.57;2.70;;;15.10;48.90;;;;;;5003633;28;20623;-78
2021/04/05 07:34:27;;;;;;;2.78;1.80;;;15.40;28.50;;;;;;5019632;28;20088;-79
2021/04/05 07:37:13;;;;;;;5.22;2.45;;;15.90;27.30;;;;;;5006483;28;20046;-80
2021/04/05 07:39:46;;;;;;;4.40;2.65;;;16.70;26.50;;;;;;5019387;28;20022;-79
2021/04/05 07:42:41;;;;;;;5.57;2.22;;;17.40;40.40;;;;;;5006921;28;20065;-79
2021/04/05 07:45:29;;;;;;;5.03;2.13;;;18.00;25.00;;;;;;5007404;28;20030;-79
2021/04/05 07:47:55;;;;;;;5.10;2.03;;;;;;;;;;4946120;28;20439;-79
2021/04/05 07:50:36;;;;;;;4.05;2.13;;;18.10;25.30;;;;;;4938003;29;20041;-79
2021/04/05 07:53:25;;;;;;;3.20;1.83;;;18.40;25.30;;;;;;4936577;29;20046;-80
2021/04/05 07:55:54;;;;;;;5.82;1.83;;;18.50;25.60;;;;;;4935364;29;20050;-81
2021/04/05 07:59:04;;;;;;;2.20;1.60;;;18.50;25.00;;;;;;4947317;28;20043;-80
2021/04/05 08:01:59;;;;;;;4.43;1.38;;;18.60;24.10;;;;;;4944678;28;20226;-79
2021/04/05 08:04:49;;;;;;;4.72;1.67;;;18.80;27.10;;;;;;4963839;28;20035;-78
2021/04/05 08:07:43;;;;;;;2.67;1.50;;;18.80;24.60;;;;;;4964300;28;20031;-79
2021/04/05 08:10:43;;;;;;;6.28;3.08;;;18.90;24.70;;;;;;4945109;28;20039;-79
2021/04/05 08:13:52;;;;;;;2.40;1.88;;;19.00;24.70;;;;;;4906466;29;20044;-80
2021/04/05 08:16:43;;;;;;;2.08;1.20;;;18.20;43.60;;;;;;4905092;29;20052;-79
2021/04/05 08:19:19;;;;;;;4.32;1.67;;;18.80;24.60;;;;;;4907278;29;20064;-79
2021/04/05 08:22:14;;;;;;;2.47;1.33;;;19.00;23.90;;;;;;4906351;29;20048;-79
2021/04/05 08:24:55;;;;;;;2.75;1.38;;;18.80;24.40;;;;;;4865795;29;20037;-79
2021/04/05 08:27:27;;;;;;;9.55;1.73;;;18.80;24.60;;;;;;4854192;29;20069;-79
2021/04/05 08:30:03;;;;;;;3.78;2.22;;;18.70;34.40;;;;;;4852349;29;20049;-79
2021/04/05 08:32:45;;;;;;;4.78;2.38;;;18.70;28.40;;;;;;4852711;29;20041;-78
2021/04/05 08:35:33;;;;;;;2.85;2.05;;;19.70;43.30;;;;;;4852629;29;20038;-79
2021/04/05 08:37:59;;;;;;;2.92;2.13;;;;;;;;;;4868644;29;20045;-79
2021/04/05 08:40:30;;;;;;;5.43;2.40;;;20.70;23.20;;;;;;4852875;29;20507;-80
2021/04/05 08:43:11;;;;;;;2.13;1.83;;;21.00;23.40;;;;;;4853315;29;20041;-80
2021/04/05 08:45:49;;;;;;;2.20;1.25;;;21.20;22.60;;;;;;4853915;29;20065;-79
2021/04/05 08:48:18;;;;;;;3.03;1.42;;;21.20;22.60;;;;;;4916416;28;20038;-80
2021/04/05 08:50:50;;;;;;;8.52;1.98;;;21.50;22.70;;;;;;4981957;28;20033;-79
2021/04/05 08:53:18;;;;;;;1.88;1.00;;;21.50;21.30;;;;;;4986351;28;20447;-80
2021/04/05 08:55:46;;;;;;;4.63;1.75;;;21.50;38.20;;;;;;4988983;28;20094;-80
2021/04/05 08:58:19;;;;;;;3.20;1.20;;;21.70;20.50;;;;;;4982333;28;20062;-79
2021/04/05 09:00:48;;;;;;;6.95;1.42;;;21.50;19.30;;;;;;4997001;28;20023;-79
2021/04/05 09:03:18;;;;;;;2.42;1.15;;;21.60;20.60;;;;;;5069296;28;20059;-79
2021/04/05 09:05:45;;;;;;;4.65;1.40;;;21.60;20.80;;;;;;5069606;28;20028;-80
2021/04/05 09:08:12;;;;;;;3.95;2.55;;;21.90;36.70;;;;;;5069905;28;20029;-79
2021/04/05 09:10:43;;;;;;;4.65;1.38;;;21.90;20.00;;;;;;5069920;28;20047;-80
2021/04/05 09:13:13;;;;;;;2.78;1.50;;;22.40;19.10;;;;;;5068729;28;20085;-79
2021/04/05 09:15:49;;;;;;;7.10;1.98;;;22.60;20.40;;;;;;5068192;28;20031;-79
2021/04/05 09:18:15;;;;;;;8.27;1.75;;;;;;;;;;5071388;28;20043;-80
2021/04/05 09:21:08;;;;;;;3.40;0.95;;;23.20;18.30;;;;;;5068153;28;20028;-80
2021/04/05 09:24:07;;;;;;;4.63;1.55;;;22.30;34.50;;;;;;5065164;28;20032;-80
2021/04/05 09:26:43;;;;;;;2.53;1.27;;;22.70;19.40;;;;;;5067474;28;20024;-80
2021/04/05 09:29:30;;;;;;;1.40;1.00;;;22.40;19.10;;;;;;5069586;28;20028;-79
2021/04/05 09:32:32;;;;;;;2.78;1.35;;;21.70;36.00;;;;;;5003168;28;20044;-80
2021/04/05 09:35:14;;;;;;;1.83;1.23;;;22.00;20.10;;;;;;5015397;28;20030;-80
2021/04/05 09:37:40;;;;;;;3.05;1.70;;;;;;;;;;5009828;28;20069;-79
2021/04/05 09:40:22;;;;;;;6.00;1.77;;;22.60;35.60;;;;;;5011192;28;20521;-78
2021/04/05 09:43:15;;;;;;;5.30;1.35;;;23.30;37.00;;;;;;5013622;28;20038;-79
2021/04/05 09:45:41;;;;;;;4.78;1.95;;;;;;;;;;5000472;28;20541;-79
2021/04/05 09:48:20;;;;;;;5.00;1.77;;;22.90;28.00;;;;;;5007823;28;20033;-79
2021/04/05 09:50:47;;;;;;;6.70;1.90;;;;;;;;;;5005463;28;20057;-80
2021/04/05 09:53:32;;;;;;;3.25;1.48;;;23.30;19.20;;;;;;5013293;28;20093;-79
2021/04/05 09:56:08;;;;;;;3.05;1.75;;;24.40;32.30;;;;;;5017874;28;20427;-80
2021/04/05 09:58:51;;;;;;;5.22;1.50;;;24.60;34.00;;;;;;5012165;28;20038;-79
2021/04/05 10:01:22;;;;;;;8.65;1.98;;;23.90;18.70;;;;;;5003492;28;20030;-80
2021/04/05 10:03:56;;;;;;;3.10;1.00;;;24.40;19.00;;;;;;5020348;28;20038;-80
2021/04/05 10:06:26;;;;;;;2.50;1.42;;;24.40;18.40;;;;;;5009287;28;20048;-80
2021/04/05 10:08:57;;;;;;;3.42;0.98;;;24.00;18.70;;;;;;5034057;28;20450;-78
2021/04/05 10:11:27;;;;;;;7.90;1.63;;;24.10;18.30;;;;;;5068979;28;20029;-79
2021/04/05 10:13:58;;;;;;;5.38;1.58;;;25.00;18.80;;;;;;5069351;28;20028;-80
2021/04/05 10:16:24;;;;;;;8.68;1.52;;;;;;;;;;5066157;28;20497;-80
2021/04/05 10:18:54;;;;;;;3.10;1.37;;;26.10;17.40;;;;;;5066150;28;20032;-80
2021/04/05 10:21:22;;;;;;;2.08;0.98;;;26.90;17.00;;;;;;5068442;28;20025;-80
2021/04/05 10:23:49;;;;;;;4.07;1.65;;;27.30;15.60;;;;;;5066646;28;20024;-79
2021/04/05 10:26:16;;;;;;;3.25;1.30;;;27.20;15.40;;;;;;5066714;28;20033;-80
2021/04/05 10:28:44;;;;;;;4.20;1.80;;;27.00;15.50;;;;;;5069881;28;20029;-80
2021/04/05 10:31:17;;;;;;;1.77;1.00;;;26.80;15.80;;;;;;5067737;28;20037;-80
2021/04/05 10:33:50;;;;;;;2.75;0.95;;;26.10;16.60;;;;;;5066739;28;20107;-80
2021/04/05 10:36:24;;;;;;;3.97;0.77;;;26.00;19.50;;;;;;5069814;28;20032;-79
2021/04/05 10:38:52;;;;;;;2.50;1.10;;;26.00;15.40;;;;;;5067770;28;20063;-80
2021/04/05 10:41:20;;;;;;;5.93;1.63;;;25.50;17.10;;;;;;5067957;28;20036;-80
2021/04/05 10:43:52;;;;;;;5.22;1.00;;;25.00;16.60;;;;;;5067194;28;20032;-80
2021/04/05 10:46:25;;;;;;;3.35;1.17;;;24.90;18.40;;;;;;5066238;28;20120;-80
2021/04/05 10:49:04;;;;;;;8.50;1.67;;;25.00;18.20;;;;;;5069036;28;20542;-79
2021/04/05 10:51:37;;;;;;;3.80;1.23;;;25.00;17.90;;;;;;5072865;28;20033;-80
2021/04/05 10:54:06;;;;;;;5.68;1.23;;;24.70;16.90;;;;;;5048068;28;20048;-81
2021/04/05 10:56:47;;;;;;;4.88;2.13;;;24.00;17.10;;;;;;5046003;28;20187;-79
2021/04/05 10:59:29;;;;;;;4.03;1.20;;;23.60;17.80;;;;;;5047642;28;20025;-79
2021/04/05 11:02:06;;;;;;;4.07;0.90;;;22.90;24.40;;;;;;5049325;28;20053;-80
2021/04/05 11:04:33;;;;;;;5.40;1.20;;;22.80;18.00;;;;;;5048640;28;20029;-78
2021/04/05 11:07:01;;;;;;;3.85;1.05;;;22.80;16.20;;;;;;5048285;28;20783;-79
2021/04/05 11:09:27;;;;;;;3.00;1.73;;;;;;;;;;5048409;28;20029;-80
2021/04/05 11:11:55;;;;;;;5.50;1.40;;;22.50;20.10;;;;;;5046366;28;20025;-80
2021/04/05 11:14:22;;;;;;;;;;;22.50;19.00;;;;;;5045636;28;20028;-80
2021/04/05 11:16:56;;;;;;;3.33;1.48;;;22.40;24.20;;;;;;5077430;28;19924;-80
2021/04/05 11:19:37;;;;;;;1.70;1.15;;;22.70;19.50;;;;;;5046363;28;20024;-81
2021/04/05 11:22:06;;;;;;;3.50;0.93;;;22.80;33.70;;;;;;5046509;28;20079;-79
2021/04/05 11:24:33;;;;;;;1.45;0.93;;;22.70;18.80;;;;;;5050066;28;20087;-79
2021/04/05 11:27:01;;;;;;;;;;;22.70;19.20;;;;;;5048348;28;20059;-79
2021/04/05 11:29:29;;;;;;;2.47;1.10;;;22.50;18.50;;;;;;5047603;28;20009;-79
2021/04/05 11:31:57;;;;;;;1.85;1.02;;;22.40;19.30;;;;;;5045926;28;20839;-80
2021/04/05 11:34:29;;;;;;;7.07;1.23;;;22.20;19.30;;;;;;5047062;28;20428;-79
2021/04/05 11:36:59;;;;;;;1.75;0.70;;;22.30;20.70;;;;;;5047734;28;20072;-80
2021/04/05 11:39:34;;;;;;;2.25;1.15;;;22.20;20.00;;;;;;5049478;28;20021;-81
2021/04/05 11:42:03;;;;;;;3.90;0.88;;;22.20;20.60;;;;;;5047739;28;20127;-79
2021/04/05 11:44:55;;;;;;;2.67;0.85;;;22.10;20.70;;;;;;5045550;28;20037;-80
2021/04/05 11:47:24;;;;;;;2.15;1.10;;;22.00;19.40;;;;;;5046399;28;20522;-79
2021/04/05 11:49:50;;;;;;;8.00;1.30;;;;;;;;;;5045033;28;20062;-80
2021/04/05 11:52:22;;;;;;;2.08;0.82;;;22.20;31.20;;;;;;5051301;28;20432;-79
2021/04/05 11:54:52;;;;;;;5.05;0.90;;;22.30;20.70;;;;;;5068615;28;20064;-79
2021/04/05 11:57:49;;;;;;;2.92;0.52;;;22.30;20.60;;;;;;5068163;28;20555;-80
2021/04/05 12:00:19;;;;;;;1.05;0.55;;;22.20;21.80;;;;;;5066061;28;20452;-79
2021/04/05 12:02:54;;;;;;;4.00;0.73;;;22.30;19.10;;;;;;5067909;28;20040;-80
2021/04/05 12:05:25;;;;;;;10.35;0.90;;;22.20;18.40;;;;;;5058404;28;20039;-79
2021/04/05 12:08:14;;;;;;;4.88;1.70;;;22.20;17.90;;;;;;5065964;28;20029;-80
2021/04/05 12:10:43;;;;;;;3.25;1.27;;;21.80;17.80;;;;;;5063550;28;20028;-79
2021/04/05 12:13:22;;;;;;;5.03;1.20;;;21.70;20.40;;;;;;5066300;28;20070;-80
2021/04/05 12:15:57;;;;;;;2.72;1.15;;;21.50;18.80;;;;;;5065221;28;20079;-79
2021/04/05 12:18:23;;;;;;;1.50;0.98;;;21.30;20.50;;;;;;5068693;28;20050;-80
2021/04/05 12:20:59;;;;;;;6.07;1.08;;;21.40;20.00;;;;;;5050118;28;20029;-80
2021/04/05 12:23:25;;;;;;;1.50;0.63;;;;;;;;;;5065319;28;20497;-79
2021/04/05 12:25:52;;;;;;;2.05;0.85;;;21.50;22.40;;;;;;5063629;28;20037;-80
2021/04/05 12:28:18;;;;;;;1.98;1.08;;;21.40;23.00;;;;;;5064591;28;20440;-80
2021/04/05 12:30:45;;;;;;;2.75;0.82;;;21.40;21.50;;;;;;5068909;28;20099;-80
2021/04/05 12:33:15;;;;;;;3.80;1.17;;;21.30;22.20;;;;;;5066965;28;20032;-80
2021/04/05 12:35:42;;;;;;;4.10;1.63;;;21.10;23.10;;;;;;5066909;28;20722;-80
2021/04/05 12:38:11;;;;;;;2.30;1.23;;;21.20;22.70;;;;;;5066905;28;20024;-79
2021/04/05 12:40:38;;;;;;;4.95;1.75;;;21.20;19.80;;;;;;5066731;28;20103;-79
2021/04/05 12:43:12;;;;;;;;;;;21.20;20.30;;;;;;5069492;28;20450;-80
2021/04/05 12:45:41;;;;;;;4.03;1.80;;;21.10;22.10;;;;;;5068480;28;19915;-80
2021/04/05 12:48:10;;;;;;;1.88;0.70;;;21.20;22.50;;;;;;5065734;28;20111;-80
2021/04/05 12:50:36;;;;;;;2.17;0.90;;;;;;;;;;5064600;28;20485;-80
2021/04/05 12:53:04;;;;;;;1.67;0.90;;;21.20;19.90;;;;;;5064489;28;20473;-80
2021/04/05 12:55:40;;;;;;;6.47;1.10;;;21.20;23.30;;;;;;5064726;28;20032;-80
2021/04/05 12:58:06;;;;;;;3.35;0.80;;;;;;;;;;5067039;28;20128;-78
2021/04/05 13:00:42;;;;;;;5.22;2.42;;;20.70;24.00;;;;;;5068573;28;20028;-79
2021/04/05 13:03:19;;;;;;;3.58;1.77;;;20.70;29.30;;;;;;5065181;28;20020;-78
2021/04/05 13:05:47;;;;;;;;;;;20.70;21.00;;;;;;5063927;28;20036;-79
2021/04/05 13:09:05;;;;;;;3.20;1.10;;;20.70;22.00;;;;;;5064508;28;20313;-79
2021/04/05 13:11:31;;;;;;;3.22;1.05;;;;;;;;;;4945400;28;20112;-80
2021/04/05 13:14:17;;;;;;;3.95;1.48;;;20.70;24.00;;;;;;4945787;29;20039;-80
2021/04/05 13:17:09;;;;;;;5.63;2.23;;;20.80;42.80;;;;;;4944035;28;20516;-79
2021/04/05 13:19:43;;;;;;;2.78;0.90;;;20.60;25.00;;;;;;4942435;28;20037;-80
2021/04/05 13:22:16;;;;;;;10.60;1.38;;;20.50;22.60;;;;;;4944866;28;20057;-79
2021/04/05 13:24:49;;;;;;;1.65;0.63;;;20.40;20.70;;;;;;4947891;28;20108;-80
2021/04/05 13:27:22;;;;;;;2.45;0.88;;;20.40;22.40;;;;;;4945433;29;20101;-79
2021/04/05 13:29:48;;;;;;;9.23;1.35;;;;;;;;;;4942742;28;20118;-79
2021/04/05 13:32:16;;;;;;;3.80;1.08;;;20.00;20.10;;;;;;4944794;29;20031;-80
2021/04/05 13:34:42;;;;;;;7.90;1.30;;;;;;;;;;4946731;28;20035;-80
2021/04/05 13:37:12;;;;;;;2.40;1.20;;;20.00;21.50;;;;;;4945282;28;20142;-78
2021/04/05 13:39:40;;;;;;;2.45;1.38;;;20.10;20.10;;;;;;4950338;29;20444;-79
2021/04/05 13:42:18;;;;;;;4.75;1.17;;;20.20;28.40;;;;;;4947721;28;20147;-80
2021/04/05 13:44:46;;;;;;;5.07;1.27;;;20.00;20.40;;;;;;4948296;28;20028;-79
2021/04/05 13:47:12;;;;;;;3.63;1.25;;;;;;;;;;5012088;28;20127;-79
2021/04/05 13:49:43;;;;;;;4.70;1.17;;;20.20;33.20;;;;;;5067516;28;20040;-79